Transformer Ol — 3EZY5 — position and weather

sailwx.info

Track history (hours):
 
Tides and Currents Weather Stations Pressure Air Temp Water Temp Dewpoint Dewpoint Depression Visibility Wind Speed Wind Dir Waves Ship Positions

Transformer Ol

Last reported at 2017-Feb-19 12:33 UTC. Time now 2017-Feb-28 17:17 UTC.
Position N 30°60' E 122°29'.
Warning: this ship's position is 9 days out of date.

Length 169 m; draft 5.4 m.

Type: Cargo ship. MMSI: 372789000.

Date/timePositionNaut miles runAvg speedWind from/ knotsBaromVisibWave heightAir tempDewpointWater temp
2017-Feb-19 12:33N 30°60' E 122°29'1413.9
2017-Feb-19 11:33N 31°02' E 122°13'1211.6
2017-Feb-19 10:33N 31°05' E 122°00'1111.4
2017-Feb-19 09:33N 31°12' E 121°49'1110.8
2017-Feb-19 08:33N 31°20' E 121°41'9 9.0
2017-Feb-19 07:33N 31°25' E 121°32'10 9.9
2017-Feb-19 06:33N 31°31' E 121°23'1313.2
2017-Feb-19 05:33N 31°40' E 121°12'1212.3
2017-Feb-19 04:33N 31°47' E 120°59'16 1.5
2017-Feb-18 17:33N 32°00' E 120°49'0 0.0
2017-Feb-18 16:27N 32°00' E 120°49'0 0.0
2017-Feb-18 14:30N 32°00' E 120°49'  
2017-Feb-14 22:12N 31°55' E 120°53'0 0.0
2017-Feb-14 21:24N 31°55' E 120°53'0 0.0
2017-Feb-14 19:27N 31°55' E 120°53'0 0.2
2017-Feb-14 18:30N 31°55' E 120°53'0 0.1
2017-Feb-14 17:30N 31°55' E 120°53'0 0.0
2017-Feb-14 15:18N 31°55' E 120°53'0 0.0
2017-Feb-14 01:30N 31°55' E 120°53'0 0.1
2017-Feb-13 23:24N 31°55' E 120°53'0 0.0
2017-Feb-13 21:24N 31°55' E 120°53'0 0.0
2017-Feb-13 20:30N 31°55' E 120°53'0 0.0
2017-Feb-13 19:24N 31°55' E 120°53'0 0.0
2017-Feb-13 14:24N 31°55' E 120°53'0 0.0
2017-Feb-12 21:33N 31°55' E 120°53'0 0.3
2017-Feb-12 20:30N 31°56' E 120°53'0 0.0
2017-Feb-12 19:27N 31°56' E 120°53'0 0.0
2017-Feb-12 18:33N 31°56' E 120°53'2 0.4
2017-Feb-12 14:21N 31°54' E 120°53'7 9.0
2017-Feb-12 13:32N 31°47' E 120°57'9 9.2
2017-Feb-12 12:33N 31°44' E 121°06'10 9.6
2017-Feb-12 11:33N 31°38' E 121°15'10 9.7
2017-Feb-12 10:34N 31°31' E 121°23'9 8.6
2017-Feb-12 09:33N 31°25' E 121°30'5 4.9
2017-Feb-12 08:33N 31°23' E 121°36'6 6.2
2017-Feb-12 07:33N 31°20' E 121°42'8 7.7
2017-Feb-12 06:33N 31°17' E 121°50'1211.7
2017-Feb-12 05:33N 31°14' E 122°03'1312.5
2017-Feb-12 04:33N 31°08' E 122°16'9 8.7
2017-Feb-12 03:33N 31°07' E 122°26'9 2.4
2017-Feb-11 23:32N 31°05' E 122°37'0 0.1
2017-Feb-11 22:32N 31°05' E 122°37'0 0.0
2017-Feb-11 21:26N 31°05' E 122°37'0 0.0
2017-Feb-11 18:32N 31°05' E 122°37'0 0.1
2017-Feb-11 17:32N 31°05' E 122°37'0 0.1
2017-Feb-11 16:29N 31°05' E 122°37'  
Track history (hours):
 
Tides and Currents Weather Stations Pressure Air Temp Water Temp Dewpoint Dewpoint Depression Visibility Wind Speed Wind Dir Waves Ship Positions

Transformer Ol

Last reported at 2017-Feb-19 12:33 UTC. Time now 2017-Feb-28 17:17 UTC.
Position N 30°60' E 122°29'.
Warning: this ship's position is 9 days out of date.

Length 169 m; draft 5.4 m.

Type: Cargo ship. MMSI: 372789000.

Date/timePositionNaut miles runAvg speedWind from/ knotsBaromVisibWave heightAir tempDewpointWater temp
2017-Feb-19 12:33N 30°60' E 122°29'1413.9
2017-Feb-19 11:33N 31°02' E 122°13'1211.6
2017-Feb-19 10:33N 31°05' E 122°00'1111.4
2017-Feb-19 09:33N 31°12' E 121°49'1110.8
2017-Feb-19 08:33N 31°20' E 121°41'9 9.0
2017-Feb-19 07:33N 31°25' E 121°32'10 9.9
2017-Feb-19 06:33N 31°31' E 121°23'1313.2
2017-Feb-19 05:33N 31°40' E 121°12'1212.3
2017-Feb-19 04:33N 31°47' E 120°59'16 1.5
2017-Feb-18 17:33N 32°00' E 120°49'0 0.0
2017-Feb-18 16:27N 32°00' E 120°49'0 0.0
2017-Feb-18 14:30N 32°00' E 120°49'  
2017-Feb-14 22:12N 31°55' E 120°53'0 0.0
2017-Feb-14 21:24N 31°55' E 120°53'0 0.0
2017-Feb-14 19:27N 31°55' E 120°53'0 0.2
2017-Feb-14 18:30N 31°55' E 120°53'0 0.1
2017-Feb-14 17:30N 31°55' E 120°53'0 0.0
2017-Feb-14 15:18N 31°55' E 120°53'0 0.0
2017-Feb-14 01:30N 31°55' E 120°53'0 0.1
2017-Feb-13 23:24N 31°55' E 120°53'0 0.0
2017-Feb-13 21:24N 31°55' E 120°53'0 0.0
2017-Feb-13 20:30N 31°55' E 120°53'0 0.0
2017-Feb-13 19:24N 31°55' E 120°53'0 0.0
2017-Feb-13 14:24N 31°55' E 120°53'0 0.0
2017-Feb-12 21:33N 31°55' E 120°53'0 0.3
2017-Feb-12 20:30N 31°56' E 120°53'0 0.0
2017-Feb-12 19:27N 31°56' E 120°53'0 0.0
2017-Feb-12 18:33N 31°56' E 120°53'2 0.4
2017-Feb-12 14:21N 31°54' E 120°53'7 9.0
2017-Feb-12 13:32N 31°47' E 120°57'9 9.2
2017-Feb-12 12:33N 31°44' E 121°06'10 9.6
2017-Feb-12 11:33N 31°38' E 121°15'10 9.7
2017-Feb-12 10:34N 31°31' E 121°23'9 8.6
2017-Feb-12 09:33N 31°25' E 121°30'5 4.9
2017-Feb-12 08:33N 31°23' E 121°36'6 6.2
2017-Feb-12 07:33N 31°20' E 121°42'8 7.7
2017-Feb-12 06:33N 31°17' E 121°50'1211.7
2017-Feb-12 05:33N 31°14' E 122°03'1312.5
2017-Feb-12 04:33N 31°08' E 122°16'9 8.7
2017-Feb-12 03:33N 31°07' E 122°26'9 2.4
2017-Feb-11 23:32N 31°05' E 122°37'0 0.1
2017-Feb-11 22:32N 31°05' E 122°37'0 0.0
2017-Feb-11 21:26N 31°05' E 122°37'0 0.0
2017-Feb-11 18:32N 31°05' E 122°37'0 0.1
2017-Feb-11 17:32N 31°05' E 122°37'0 0.1
2017-Feb-11 16:29N 31°05' E 122°37'  

Dump ship's entire track history